Time;durP1;ratioP1;P1;durP2;ratioP2;P2;SDS_P1;SDS_P2;PMS_P1;PMS_P2;Temp;Humidity;BMP_temperature;BMP_pressure;BME280_temperature;BME280_humidity;BME280_pressure;Samples;Min_cycle;Max_cycle;Signal;HPM_P1;HPM_P2
2023/02/21 02:15:42;;;;;;;2.97;2.70;;;;;;;9.48;78.83;99785.28;10419033;28;20052;-70
2023/02/21 02:20:52;;;;;;;2.92;2.72;;;;;;;9.42;79.73;99767.09;10418067;28;20095;-70
2023/02/21 02:26:28;;;;;;;2.42;2.22;;;;;;;9.45;79.28;99780.13;10418787;28;20069;-70
2023/02/21 02:31:41;;;;;;;2.47;2.28;;;;;;;9.43;79.67;99774.09;10418149;28;20038;-70
2023/02/21 02:36:50;;;;;;;2.33;2.13;;;;;;;9.51;79.21;99773.81;10399864;28;20079;-70
2023/02/21 02:42:02;;;;;;;3.42;2.22;;;;;;;9.50;79.35;99762.47;10417346;28;20125;-70
2023/02/21 02:47:14;;;;;;;2.65;2.45;;;;;;;9.57;78.81;99768.41;10383157;28;20043;-70
2023/02/21 02:52:16;;;;;;;3.17;2.13;;;;;;;9.43;79.67;99747.84;10392949;28;20228;-70
2023/02/21 02:57:18;;;;;;;2.33;2.13;;;;;;;9.51;79.53;99758.94;10399921;28;20041;-70
2023/02/21 03:02:35;;;;;;;2.78;1.90;;;;;;;9.45;79.83;99760.91;10416742;28;20037;-70
2023/02/21 03:07:56;;;;;;;3.03;2.30;;;;;;;9.56;79.91;99757.06;10419426;28;20036;-70
2023/02/21 03:13:12;;;;;;;2.70;2.20;;;;;;;9.45;80.69;99761.75;10398819;28;20503;-70
2023/02/21 03:18:33;;;;;;;4.72;2.83;;;;;;;9.45;80.89;99753.91;10398640;28;20084;-70
2023/02/21 03:23:38;;;;;;;3.45;3.15;;;;;;;9.56;80.40;99751.81;10398612;28;20490;-70
2023/02/21 03:28:40;;;;;;;2.30;2.10;;;;;;;9.53;81.14;99736.16;10415843;28;20042;-70
2023/02/21 03:33:43;;;;;;;2.50;2.30;;;;;;;9.54;81.13;99740.47;10397997;28;20140;-70
2023/02/21 03:38:45;;;;;;;3.50;3.20;;;;;;;9.48;81.81;99740.69;10397804;28;20453;-70
2023/02/21 03:43:47;;;;;;;3.13;2.83;;;;;;;9.64;81.23;99727.91;10398486;28;20050;-70
2023/02/21 03:48:49;;;;;;;4.10;3.10;;;;;;;9.65;81.15;99731.38;10398214;28;20045;-70
2023/02/21 03:53:56;;;;;;;3.67;2.95;;;;;;;9.59;81.43;99749.06;10399144;28;20049;-70
2023/02/21 03:59:05;;;;;;;2.83;2.53;;;;;;;9.62;81.71;99755.13;10397615;28;20050;-70
2023/02/21 04:04:07;;;;;;;3.25;2.95;;;;;;;9.69;81.34;99738.25;10415004;28;20041;-70
2023/02/21 04:09:09;;;;;;;3.25;2.95;;;;;;;9.65;81.77;99748.03;10422162;28;20475;-70
2023/02/21 04:14:12;;;;;;;3.53;3.22;;;;;;;9.62;81.97;99742.88;10423594;28;20045;-70
2023/02/21 04:19:15;;;;;;;7.28;3.63;;;;;;;9.69;82.16;99743.50;10405254;28;20045;-70
2023/02/21 04:24:17;;;;;;;4.47;4.07;;;;;;;9.66;82.70;99743.63;10404927;28;20084;-70
2023/02/21 04:29:19;;;;;;;4.75;4.28;;;;;;;9.55;83.80;99746.59;10404854;28;20418;-70
2023/02/21 04:34:21;;;;;;;4.35;3.45;;;;;;;9.62;83.44;99744.63;10422319;28;20045;-70
2023/02/21 04:39:23;;;;;;;5.15;4.70;;;;;;;9.63;83.86;99735.84;10404110;28;20450;-70
2023/02/21 04:44:25;;;;;;;5.60;5.10;;;;;;;9.58;84.50;99733.38;10422375;28;20045;-70
2023/02/21 04:49:27;;;;;;;4.68;4.28;;;;;;;9.64;84.62;99743.66;10422420;28;20033;-70
2023/02/21 04:54:29;;;;;;;5.60;5.20;;;;;;;9.64;84.67;99748.91;10421288;28;20499;-70
2023/02/21 04:59:30;;;;;;;5.40;5.00;;;;;;;9.65;84.99;99741.88;10421132;28;20410;-70
2023/02/21 05:04:33;;;;;;;6.05;5.47;;;;;;;9.69;85.04;99735.63;10403146;28;20057;-71
2023/02/21 05:09:34;;;;;;;5.93;5.43;;;;;;;9.68;85.29;99734.78;10420584;28;20045;-69
2023/02/21 05:14:38;;;;;;;5.95;5.45;;;;;;;9.70;85.14;99727.72;10421403;28;20045;-70
2023/02/21 05:19:39;;;;;;;5.28;4.88;;;;;;;9.80;84.21;99721.25;10402970;28;20136;-70
2023/02/21 05:24:41;;;;;;;6.13;5.63;;;;;;;9.75;84.90;99719.69;10420499;28;20049;-70
2023/02/21 05:29:48;;;;;;;5.72;5.32;;;;;;;9.75;84.62;99722.31;10420870;28;20065;-70
2023/02/21 05:34:50;;;;;;;6.10;5.53;;;;;;;9.68;85.21;99721.66;10402403;28;20053;-71
2023/02/21 05:39:52;;;;;;;6.13;5.63;;;;;;;9.65;85.42;99721.78;10403524;28;20045;-71
2023/02/21 05:44:53;;;;;;;6.40;5.80;;;;;;;9.63;85.84;99735.84;10420384;28;20049;-71
2023/02/21 05:49:55;;;;;;;7.07;6.47;;;;;;;9.59;85.98;99746.44;10402273;28;20045;-69
2023/02/21 05:54:57;;;;;;;6.68;6.18;;;;;;;9.67;85.87;99751.44;10419918;28;20491;-70
2023/02/21 06:00:02;;;;;;;6.82;6.22;;;;;;;9.74;85.36;99759.97;10401987;28;20523;-70
2023/02/21 06:05:12;;;;;;;7.72;7.10;;;;;;;9.60;86.21;99752.53;10419871;28;20095;-70
2023/02/21 06:10:15;;;;;;;8.68;6.97;;;;;;;9.65;86.05;99755.00;10402850;28;20052;-70
2023/02/21 06:15:17;;;;;;;7.45;6.85;;;;;;;9.71;85.45;99765.34;10419308;28;20388;-70
2023/02/21 06:20:19;;;;;;;7.50;6.90;;;;;;;9.73;85.44;99781.88;10418150;28;20083;-70
2023/02/21 06:25:21;;;;;;;7.82;7.22;;;;;;;9.70;85.58;99769.72;10418170;28;20069;-70
2023/02/21 06:30:23;;;;;;;8.10;7.30;;;;;;;9.64;86.15;99777.78;10422821;28;20114;-70
2023/02/21 06:35:29;;;;;;;7.68;7.07;;;;;;;9.68;86.09;99782.03;10408246;28;20037;-71
2023/02/21 06:40:35;;;;;;;7.82;7.22;;;;;;;9.71;85.69;99784.56;10419607;28;20099;-69
2023/02/21 06:45:37;;;;;;;7.78;7.07;;;;;;;9.71;85.91;99800.31;10418046;28;20099;-70
2023/02/21 06:50:39;;;;;;;8.05;7.25;;;;;;;9.72;85.64;99798.53;10417130;28;20049;-69
2023/02/21 06:55:40;;;;;;;8.25;7.63;;;;;;;9.81;85.09;99791.22;10416758;28;20459;-69
2023/02/21 07:00:43;;;;;;;8.35;7.55;;;;;;;9.77;85.61;99812.38;10398958;28;20041;-69
2023/02/21 07:05:45;;;;;;;7.85;7.15;;;;;;;9.85;85.00;99810.34;10416636;28;20049;-69
2023/02/21 07:10:47;;;;;;;8.95;7.75;;;;;;;9.90;84.78;99818.94;10417243;28;20148;-69
2023/02/21 07:15:48;;;;;;;8.60;7.88;;;;;;;9.83;85.64;99852.41;10416713;28;20041;-69
2023/02/21 07:20:50;;;;;;;9.23;8.23;;;;;;;9.89;85.46;99829.50;10417479;28;20033;-69
2023/02/21 07:25:52;;;;;;;8.85;8.15;;;;;;;9.90;85.37;99839.09;10417257;28;20064;-70
2023/02/21 07:30:53;;;;;;;9.88;9.02;;;;;;;9.91;85.39;99848.69;10416928;28;20112;-69
2023/02/21 07:35:55;;;;;;;9.93;9.18;;;;;;;9.94;84.86;99853.84;10468107;22;20049;-72
2023/02/21 07:40:59;;;;;;;13.32;12.23;;;;;;;9.93;84.86;99862.63;10456900;28;20053;-70
2023/02/21 07:46:01;;;;;;;9.63;8.80;;;;;;;9.89;85.64;99859.22;10457418;28;20434;-71
2023/02/21 07:51:05;;;;;;;10.55;9.73;;;;;;;9.90;85.31;99871.44;10458767;28;20102;-71
2023/02/21 07:56:07;;;;;;;10.63;9.70;;;;;;;9.90;85.65;99867.97;10440698;28;20053;-71
2023/02/21 08:01:08;;;;;;;10.40;9.60;;;;;;;9.93;85.57;99875.75;10457425;28;20072;-71
2023/02/21 08:06:11;;;;;;;9.75;8.95;;;;;;;9.92;85.68;99877.53;10457659;28;20051;-71
2023/02/21 08:11:13;;;;;;;11.23;10.23;;;;;;;9.82;86.83;99874.31;10456192;28;20121;-70
2023/02/21 08:16:15;;;;;;;11.07;10.13;;;;;;;9.87;86.23;99884.66;10457872;28;20043;-70
2023/02/21 08:21:17;;;;;;;10.32;9.32;;;;;;;9.96;85.55;99878.25;10438291;28;20462;-71
2023/02/21 08:26:18;;;;;;;11.65;10.75;;;;;;;9.93;86.25;99871.34;10456299;28;20486;-71
2023/02/21 08:31:20;;;;;;;11.82;10.80;;;;;;;9.88;86.93;99875.06;10455991;28;20049;-71
2023/02/21 08:36:33;;;;;;;10.60;9.60;;;;;;;9.74;88.33;99881.59;10456434;28;20413;-72
2023/02/21 08:41:44;;;;;;;10.00;9.13;;;;;;;9.99;86.90;99878.19;10457431;28;20045;-70
2023/02/21 08:46:46;;;;;;;10.55;9.57;;;;;;;10.02;86.38;99878.94;10456443;28;20037;-69
2023/02/21 08:51:50;;;;;;;10.45;9.55;;;;;;;10.14;84.83;99876.81;10458565;28;20125;-71
2023/02/21 08:56:53;;;;;;;9.20;8.50;;;;;;;10.24;84.16;99876.50;10462991;28;20045;-70
2023/02/21 09:01:55;;;;;;;9.60;8.80;;;;;;;10.36;84.14;99875.25;10464488;28;20091;-70
2023/02/21 09:06:56;;;;;;;10.73;9.85;;;;;;;10.59;82.10;99874.47;10462300;28;20063;-70
2023/02/21 09:11:58;;;;;;;9.13;8.43;;;;;;;10.64;81.96;99880.44;10461904;28;20044;-70
2023/02/21 09:17:00;;;;;;;7.93;7.30;;;;;;;10.67;80.28;99872.44;10461757;28;20041;-70
2023/02/21 09:22:03;;;;;;;8.55;7.85;;;;;;;10.60;81.15;99884.94;10462545;28;20049;-70
2023/02/21 09:27:05;;;;;;;9.18;8.45;;;;;;;10.60;81.52;99892.81;10461608;28;20041;-70
2023/02/21 09:32:07;;;;;;;8.50;7.80;;;;;;;10.57;81.54;99894.69;10461883;28;20049;-70
2023/02/21 09:37:08;;;;;;;9.05;8.25;;;;;;;10.73;81.41;99887.13;10461123;28;20090;-69
2023/02/21 09:42:17;;;;;;;9.38;8.63;;;;;;;10.97;80.17;99888.03;10462227;28;20049;-70
2023/02/21 09:47:29;;;;;;;8.70;8.05;;;;;;;11.09;80.07;99888.47;10461184;28;20033;-70
2023/02/21 09:52:38;;;;;;;8.48;7.78;;;;;;;11.22;79.27;99899.41;10460625;28;20037;-69
2023/02/21 09:57:40;;;;;;;9.63;8.82;;;;;;;11.26;78.78;99900.16;10459910;28;20045;-70
2023/02/21 10:03:13;;;;;;;9.32;8.45;;;;;;;11.23;78.44;99901.09;10441823;28;20060;-69
2023/02/21 10:08:25;;;;;;;11.55;10.75;;;;;;;11.20;79.31;99905.63;10459577;28;20037;-69
2023/02/21 10:13:47;;;;;;;9.82;8.75;;;;;;;11.42;76.71;99892.53;10459489;28;20044;-70
2023/02/21 10:18:55;;;;;;;8.88;8.18;;;;;;;11.23;77.79;99901.09;10459517;28;20394;-69
2023/02/21 10:24:03;;;;;;;10.57;9.77;;;;;;;11.37;77.27;99911.13;10459368;28;20410;-69
2023/02/21 10:29:22;;;;;;;12.95;11.82;;;;;;;11.40;75.86;99918.91;10460866;28;20033;-70
2023/02/21 10:34:27;;;;;;;20.45;18.80;;;;;;;11.39;76.47;99926.88;10458752;28;20045;-70
2023/02/21 10:39:51;;;;;;;19.60;17.90;;;;;;;11.51;75.66;99919.38;10458592;28;20041;-70
2023/02/21 10:44:54;;;;;;;6.88;6.38;;;;;;;11.39;76.08;99924.25;10456520;28;20041;-70
2023/02/21 10:50:03;;;;;;;8.63;7.88;;;;;;;11.38;76.65;99926.03;10453591;28;20510;-70
2023/02/21 10:55:14;;;;;;;9.30;8.60;;;;;;;11.28;75.50;99922.84;10451976;28;20048;-70
2023/02/21 11:00:37;;;;;;;6.70;6.20;;;;;;;11.25;76.33;99930.00;10457923;28;20036;-70
2023/02/21 11:05:39;;;;;;;7.28;6.68;;;;;;;11.32;75.38;99921.81;10458081;28;20063;-70
2023/02/21 11:10:42;;;;;;;9.50;8.80;;;;;;;11.37;76.32;99919.00;10459067;28;20040;-70
2023/02/21 11:15:45;;;;;;;8.20;7.50;;;;;;;11.38;75.76;99918.13;10458189;28;20455;-69
2023/02/21 11:20:47;;;;;;;6.93;6.32;;;;;;;11.24;76.73;99907.22;10457320;28;20082;-69
2023/02/21 11:25:55;;;;;;;7.60;7.00;;;;;;;11.28;76.64;99911.47;10457418;28;20056;-70
2023/02/21 11:31:00;;;;;;;7.47;6.78;;;;;;;11.11;77.57;99909.44;10457574;28;20033;-70
2023/02/21 11:36:09;;;;;;;7.53;6.75;;;;;;;11.36;76.07;99919.94;10457725;28;20049;-69
2023/02/21 11:41:50;;;;;;;8.10;7.30;;;;;;;11.27;77.11;99905.34;10438838;28;20063;-68
2023/02/21 11:47:21;;;;;;;9.40;8.70;;;;;;;11.43;75.83;99904.78;10456841;28;20594;-69
2023/02/21 11:52:45;;;;;;;6.72;6.13;;;;;;;11.32;76.41;99913.91;10457211;28;20132;-70
2023/02/21 11:57:56;;;;;;;8.18;7.45;;;;;;;11.36;76.51;99919.94;10458159;28;20041;-70
2023/02/21 12:03:21;;;;;;;7.38;6.78;;;;;;;11.13;77.68;99912.03;10457025;28;20041;-69
2023/02/21 12:08:38;;;;;;;8.27;6.75;;;;;;;11.03;78.57;99911.50;10457970;28;20056;-69
2023/02/21 12:13:56;;;;;;;6.22;5.72;;;;;;;10.98;79.00;99913.41;10455948;28;20079;-70
2023/02/21 12:19:26;;;;;;;6.55;6.00;;;;;;;11.08;78.65;99907.78;10457098;28;20092;-69
2023/02/21 12:24:47;;;;;;;6.10;5.60;;;;;;;11.10;79.12;99891.94;10444450;28;20527;-70
2023/02/21 12:30:26;;;;;;;6.38;5.78;;;;;;;11.28;78.17;99895.69;10458882;28;20049;-70
2023/02/21 12:35:56;;;;;;;6.28;5.72;;;;;;;11.23;78.20;99893.22;10450451;28;20135;-70
2023/02/21 12:41:07;;;;;;;6.82;6.25;;;;;;;11.22;77.62;99896.75;10464054;28;20037;-70
2023/02/21 12:46:31;;;;;;;28.33;24.50;;;;;;;11.31;76.82;99882.41;10462713;28;20049;-70
2023/02/21 12:51:39;;;;;;;6.15;5.65;;;;;;;11.30;76.00;99878.06;10403747;28;20606;-70
2023/02/21 12:57:01;;;;;;;7.47;6.80;;;;;;;11.47;76.41;99883.56;10404543;28;20041;-70
2023/02/21 13:02:23;;;;;;;6.22;5.72;;;;;;;11.53;76.56;99874.56;10422240;28;20045;-69
2023/02/21 13:07:33;;;;;;;6.50;5.90;;;;;;;11.31;77.28;99870.09;10456808;28;20371;-70
2023/02/21 13:12:44;;;;;;;7.70;5.95;;;;;;;11.53;76.34;99861.41;10461905;28;20045;-70
2023/02/21 13:17:53;;;;;;;7.78;7.07;;;;;;;11.40;76.33;99863.66;10443770;28;20045;-70
2023/02/21 13:28:54;;;;;;;7.30;6.60;;;;;;;11.58;75.48;99857.66;10462046;28;20052;-69
2023/02/21 13:33:59;;;;;;;6.40;5.82;;;;;;;11.49;75.68;99850.13;10453269;22;20049;-68
2023/02/21 13:39:07;;;;;;;5.82;5.32;;;;;;;11.31;76.50;99856.94;10435231;28;20033;-67
2023/02/21 13:44:38;;;;;;;5.97;5.35;;;;;;;11.20;76.76;99842.47;10403144;28;20041;-69
2023/02/21 13:49:57;;;;;;;6.47;5.75;;;;;;;11.13;77.34;99851.53;10416578;28;20056;-68
2023/02/21 13:55:09;;;;;;;7.38;6.75;;;;;;;11.11;77.62;99855.09;10385522;28;20495;-68
2023/02/21 14:00:19;;;;;;;8.55;6.15;;;;;;;11.06;77.60;99859.63;10419651;28;20037;-68
2023/02/21 14:05:22;;;;;;;7.32;6.72;;;;;;;11.27;76.49;99862.38;10420312;28;20080;-68
2023/02/21 14:10:38;;;;;;;6.95;6.35;;;;;;;11.22;77.17;99859.06;10419156;28;20048;-68
2023/02/21 14:15:43;;;;;;;7.88;7.25;;;;;;;11.22;77.22;99857.28;10420653;28;20049;-68
2023/02/21 14:20:49;;;;;;;7.70;7.00;;;;;;;11.13;77.46;99864.69;10420447;28;20064;-68
2023/02/21 14:26:00;;;;;;;6.82;6.22;;;;;;;11.04;78.55;99856.22;10420037;28;20423;-68
2023/02/21 14:31:02;;;;;;;6.43;5.82;;;;;;;11.17;78.34;99856.63;10417848;28;20037;-68
2023/02/21 14:36:07;;;;;;;7.63;6.93;;;;;;;11.17;77.69;99848.72;10401540;28;20095;-68
2023/02/21 14:41:28;;;;;;;9.18;6.50;;;;;;;11.24;77.75;99855.44;10386378;28;20503;-67
2023/02/21 14:47:00;;;;;;;6.93;6.32;;;;;;;11.29;77.62;99857.94;10377842;28;20038;-68
2023/02/21 14:52:48;;;;;;;6.78;6.18;;;;;;;11.16;78.71;99854.06;10377484;28;20068;-68
2023/02/21 14:58:40;;;;;;;5.85;5.25;;;;;;;11.27;77.77;99857.13;10212554;29;20059;-68
2023/02/21 15:04:11;;;;;;;6.65;6.05;;;;;;;11.43;76.72;99858.28;10188928;29;20075;-68
2023/02/21 15:09:18;;;;;;;6.28;5.72;;;;;;;11.14;78.06;99855.88;10211792;29;20445;-68
2023/02/21 15:14:26;;;;;;;5.97;5.35;;;;;;;11.11;78.87;99846.31;10214722;29;20051;-67
2023/02/21 15:19:34;;;;;;;6.47;5.90;;;;;;;11.05;79.09;99849.16;10198645;29;20480;-68
2023/02/21 15:24:36;;;;;;;5.85;5.35;;;;;;;11.06;78.98;99846.47;10197541;29;20517;-68
2023/02/21 15:29:39;;;;;;;6.32;5.82;;;;;;;11.17;78.20;99850.50;10212627;29;20083;-69
2023/02/21 15:34:46;;;;;;;7.10;6.50;;;;;;;11.05;78.63;99857.91;10323998;28;20152;-68
2023/02/21 15:39:51;;;;;;;6.05;5.55;;;;;;;10.96;79.67;99867.91;10341035;28;20491;-69
2023/02/21 15:45:04;;;;;;;5.15;4.75;;;;;;;11.06;78.08;99870.16;10360166;28;20057;-68
2023/02/21 15:50:24;;;;;;;5.65;5.15;;;;;;;11.00;78.66;99874.78;10378474;28;20081;-74
2023/02/21 15:55:29;;;;;;;7.10;6.50;;;;;;;11.18;77.63;99875.88;10360775;28;20507;-75
2023/02/21 16:00:37;;;;;;;6.15;5.18;;;;;;;10.94;79.58;99875.00;10362220;28;20038;-75
2023/02/21 16:05:39;;;;;;;5.30;4.80;;;;;;;11.00;78.67;99875.63;10387540;28;20053;-75
2023/02/21 16:10:42;;;;;;;6.80;5.40;;;;;;;11.06;78.19;99880.66;10367844;28;20046;-74
2023/02/21 16:15:44;;;;;;;7.43;6.80;;;;;;;11.03;78.41;99885.19;10368086;28;20045;-75
2023/02/21 16:20:59;;;;;;;6.97;6.15;;;;;;;10.95;79.30;99882.84;10368605;28;20408;-74
2023/02/21 16:26:19;;;;;;;5.43;4.93;;;;;;;10.77;80.54;99892.22;10386985;28;20054;-73
2023/02/21 16:31:31;;;;;;;5.70;5.20;;;;;;;10.82;80.15;99886.81;10368797;28;20050;-74
2023/02/21 16:36:33;;;;;;;7.93;6.80;;;;;;;10.79;80.18;99898.28;10385001;28;20042;-74
2023/02/21 16:41:35;;;;;;;7.10;6.50;;;;;;;10.94;78.95;99896.91;10385004;28;20388;-74
2023/02/21 16:46:37;;;;;;;5.53;5.03;;;;;;;10.88;79.62;99904.13;10384313;28;20501;-74
2023/02/21 16:51:42;;;;;;;5.53;5.03;;;;;;;10.84;79.76;99900.75;10383620;28;20049;-74
2023/02/21 16:56:49;;;;;;;8.43;7.60;;;;;;;10.95;78.29;99906.50;10366561;28;20132;-75
2023/02/21 17:01:51;;;;;;;7.50;6.78;;;;;;;10.88;78.48;99907.63;10386644;28;20440;-75
2023/02/21 17:06:59;;;;;;;6.90;6.20;;;;;;;10.89;78.58;99906.75;10385484;28;20097;-75
2023/02/21 17:12:01;;;;;;;12.63;11.43;;;;;;;10.92;78.22;99906.59;10384195;28;20507;-75
2023/02/21 17:17:03;;;;;;;9.85;8.90;;;;;;;10.87;78.77;99916.44;10353278;28;20113;-74
2023/02/21 17:22:08;;;;;;;15.55;12.38;;;;;;;10.81;78.89;99917.50;10343700;28;20506;-74
2023/02/21 17:27:10;;;;;;;5.55;5.05;;;;;;;10.60;80.52;99924.34;10343289;28;20042;-75
2023/02/21 17:32:12;;;;;;;11.10;10.10;;;;;;;10.59;80.54;99925.28;10324436;28;20042;-74
2023/02/21 17:37:17;;;;;;;7.35;6.65;;;;;;;10.76;79.59;99929.09;10341182;28;20085;-74
2023/02/21 17:42:19;;;;;;;6.00;5.40;;;;;;;10.65;80.12;99933.84;10341392;28;20048;-75
2023/02/21 17:47:22;;;;;;;7.28;6.45;;;;;;;10.68;79.23;99932.00;10342515;28;20141;-74
2023/02/21 17:52:25;;;;;;;28.23;18.83;;;;;;;10.60;80.37;99932.25;10342311;28;20042;-75
2023/02/21 17:57:28;;;;;;;12.52;11.30;;;;;;;10.56;79.94;99941.13;10322730;28;20512;-75
2023/02/21 18:02:30;;;;;;;6.53;6.00;;;;;;;10.74;78.29;99944.91;10340904;28;20042;-74
2023/02/21 18:07:33;;;;;;;6.60;4.82;;;;;;;10.60;78.57;99939.28;10339714;28;20054;-74
2023/02/21 18:12:36;;;;;;;5.22;4.25;;;;;;;10.63;77.88;99941.81;10340550;28;20081;-74
2023/02/21 18:17:39;;;;;;;10.65;7.45;;;;;;;10.65;76.91;99957.50;10356929;28;20052;-75
2023/02/21 18:22:41;;;;;;;7.20;6.60;;;;;;;10.65;76.47;99962.78;10364504;28;20092;-75
2023/02/21 18:27:44;;;;;;;4.97;4.32;;;;;;;10.23;77.93;99966.72;10379992;28;20100;-74
2023/02/21 18:32:45;;;;;;;5.70;4.57;;;;;;;10.13;78.39;99970.50;10379735;28;20459;-75
2023/02/21 18:37:47;;;;;;;6.00;4.93;;;;;;;10.23;78.31;99964.09;10381282;28;20053;-74
2023/02/21 18:42:51;;;;;;;7.18;6.57;;;;;;;10.32;77.72;99965.59;10379615;28;20062;-75
2023/02/21 18:47:53;;;;;;;17.13;12.90;;;;;;;10.34;77.82;99969.03;10382384;28;20049;-74
2023/02/21 18:52:54;;;;;;;21.48;15.80;;;;;;;10.45;76.95;99966.06;10380874;28;20052;-74
2023/02/21 18:57:57;;;;;;;9.38;7.63;;;;;;;10.41;77.10;99964.44;10363008;28;20060;-74
2023/02/21 19:03:00;;;;;;;8.20;6.85;;;;;;;10.52;76.79;99957.91;10380098;28;20407;-74
2023/02/21 19:08:02;;;;;;;5.55;5.05;;;;;;;10.17;78.76;99966.03;10346295;28;20470;-74
2023/02/21 19:13:04;;;;;;;6.35;5.72;;;;;;;10.09;79.56;99968.88;10379348;28;20046;-75
2023/02/21 19:18:06;;;;;;;7.15;6.45;;;;;;;10.02;79.27;99975.25;10346096;28;20046;-75
2023/02/21 19:23:08;;;;;;;5.50;5.10;;;;;;;9.99;79.12;99973.56;10378520;28;20565;-74
2023/02/21 19:28:10;;;;;;;8.82;6.47;;;;;;;10.19;78.02;99985.25;10378809;28;20076;-76
2023/02/21 19:38:28;;;;;;;;;;;;;;;9.98;79.31;99984.97;10410521;28;20111;-72
2023/02/21 19:43:31;;;;;;;5.03;4.63;;;;;;;10.06;78.87;99998.75;10394727;28;19921;-70
2023/02/21 19:48:33;;;;;;;5.65;5.20;;;;;;;9.95;80.23;99999.97;10417439;28;20045;-71
2023/02/21 19:53:34;;;;;;;6.32;4.82;;;;;;;9.90;79.93;100005.34;10415226;28;20052;-70
2023/02/21 19:58:37;;;;;;;5.32;4.93;;;;;;;10.17;78.19;100014.16;10415928;28;20087;-71
2023/02/21 20:03:40;;;;;;;5.90;5.40;;;;;;;10.02;79.30;100010.25;10415460;28;20405;-70
2023/02/21 20:08:47;;;;;;;5.43;4.93;;;;;;;10.08;79.66;100012.69;10415216;28;20125;-71
2023/02/21 20:13:49;;;;;;;5.90;5.40;;;;;;;10.05;80.26;100015.41;10414213;28;20529;-70
2023/02/21 20:18:53;;;;;;;6.03;5.53;;;;;;;10.17;79.79;100022.03;10415366;28;20045;-72
2023/02/21 20:23:56;;;;;;;5.88;5.38;;;;;;;10.02;79.94;100019.91;10416149;28;20045;-73
2023/02/21 20:28:58;;;;;;;5.40;4.97;;;;;;;9.92;79.99;100015.84;10413516;28;20049;-73
2023/02/21 20:34:01;;;;;;;5.43;5.03;;;;;;;10.04;79.14;100016.31;10415093;28;20041;-72
2023/02/21 20:39:19;;;;;;;5.50;5.00;;;;;;;9.93;79.97;100021.03;10415153;28;20084;-73
2023/02/21 20:44:21;;;;;;;5.97;5.47;;;;;;;9.93;80.40;100018.41;10414636;28;20037;-72
2023/02/21 20:49:23;;;;;;;5.97;5.53;;;;;;;9.97;80.42;100012.16;10421018;28;20080;-72
2023/02/21 20:54:24;;;;;;;7.10;6.40;;;;;;;9.94;80.15;100014.00;10423671;28;20434;-70
2023/02/21 20:59:29;;;;;;;5.78;4.90;;;;;;;9.82;80.42;100010.81;10421764;28;20069;-71
2023/02/21 21:04:36;;;;;;;6.03;5.43;;;;;;;9.82;80.19;100010.81;10421851;28;20049;-71
2023/02/21 21:09:39;;;;;;;6.90;4.70;;;;;;;9.72;79.83;100008.50;10421940;28;20041;-70
2023/02/21 21:14:43;;;;;;;5.00;4.57;;;;;;;9.72;79.86;100016.38;10422340;28;20057;-72
2023/02/21 21:19:47;;;;;;;6.10;5.53;;;;;;;9.70;79.65;100012.97;10424037;28;20061;-70
2023/02/21 21:24:49;;;;;;;4.70;4.30;;;;;;;9.60;80.24;100014.97;10422103;28;20052;-69
2023/02/21 21:29:52;;;;;;;4.78;4.38;;;;;;;9.52;80.91;100012.56;10422124;28;20113;-71
2023/02/21 21:34:57;;;;;;;6.05;5.55;;;;;;;9.75;79.01;100017.16;10421386;28;20449;-69
2023/02/21 21:40:14;;;;;;;5.03;4.63;;;;;;;9.76;78.52;100007.53;10423210;28;20042;-70
2023/02/21 21:45:18;;;;;;;4.65;4.25;;;;;;;9.58;78.73;100014.16;10420540;28;20041;-70
2023/02/21 21:50:20;;;;;;;4.57;4.18;;;;;;;9.61;78.89;100014.09;10421703;28;20108;-69
2023/02/21 21:55:25;;;;;;;3.95;3.55;;;;;;;9.77;77.95;100017.97;10421091;28;20463;-69
2023/02/21 22:00:29;;;;;;;3.97;3.65;;;;;;;9.58;78.48;100020.25;10422072;28;20593;-69
2023/02/21 22:05:31;;;;;;;4.75;4.15;;;;;;;9.56;79.08;100024.72;10420634;28;20290;-69
2023/02/21 22:10:33;;;;;;;4.65;4.25;;;;;;;9.46;79.78;100025.84;10420151;28;20037;-70
2023/02/21 22:15:34;;;;;;;5.10;4.55;;;;;;;9.49;79.15;100024.91;10419992;28;20037;-70
2023/02/21 22:20:37;;;;;;;4.78;4.35;;;;;;;9.58;78.90;100025.50;10418541;28;20041;-68
2023/02/21 22:25:38;;;;;;;5.28;4.78;;;;;;;9.70;78.30;100033.97;10419398;28;20051;-69
2023/02/21 22:30:40;;;;;;;10.35;4.75;;;;;;;9.42;80.20;100024.19;10419010;28;20041;-69
2023/02/21 22:35:42;;;;;;;4.85;4.35;;;;;;;9.37;80.60;100026.09;10418612;28;20154;-69
2023/02/21 22:40:45;;;;;;;5.47;5.07;;;;;;;9.36;80.88;100032.25;10417187;28;20515;-69
2023/02/21 22:45:48;;;;;;;5.50;5.00;;;;;;;9.54;80.22;100034.38;10418580;28;20046;-69
2023/02/21 22:50:51;;;;;;;5.28;4.78;;;;;;;9.46;80.66;100031.09;10418293;28;20061;-71
2023/02/21 22:56:01;;;;;;;10.15;5.03;;;;;;;9.10;82.73;100022.44;10418497;28;20137;-70
2023/02/21 23:01:06;;;;;;;5.65;5.15;;;;;;;9.04;83.70;100023.47;10417851;28;20069;-69
2023/02/21 23:06:08;;;;;;;6.22;4.85;;;;;;;9.07;83.89;100020.78;10420570;28;20072;-69
2023/02/21 23:11:17;;;;;;;6.53;5.93;;;;;;;8.93;84.90;100017.63;10419619;28;20049;-69
2023/02/21 23:16:20;;;;;;;8.57;5.43;;;;;;;8.83;85.80;100019.63;10416484;28;20071;-70
2023/02/21 23:21:22;;;;;;;6.10;5.57;;;;;;;8.81;85.75;100015.34;10415915;28;20053;-69
2023/02/21 23:26:24;;;;;;;5.65;5.07;;;;;;;8.86;85.17;100018.69;10418342;28;20103;-69
2023/02/21 23:31:26;;;;;;;6.80;6.22;;;;;;;8.85;85.33;100022.19;10417604;28;20045;-69
2023/02/21 23:36:28;;;;;;;5.65;5.15;;;;;;;8.91;84.44;100023.81;10417135;28;20072;-69
2023/02/21 23:41:33;;;;;;;5.80;5.30;;;;;;;8.84;85.12;100017.84;10416400;28;20048;-69
2023/02/21 23:46:38;;;;;;;5.57;5.13;;;;;;;8.86;84.84;100010.84;10416820;28;20044;-69
2023/02/21 23:51:42;;;;;;;6.00;5.43;;;;;;;9.11;83.41;100011.03;10415542;28;20041;-69
2023/02/21 23:56:46;;;;;;;5.30;4.72;;;;;;;9.20;82.13;100017.81;10417069;28;20388;-69
